Time;durP1;ratioP1;P1;durP2;ratioP2;P2;SDS_P1;SDS_P2;PMS_P1;PMS_P2;Temp;Humidity;BMP_temperature;BMP_pressure;BME280_temperature;BME280_humidity;BME280_pressure;Samples;Min_cycle;Max_cycle;Signal;HPM_P1;HPM_P2
2021/10/20 09:13:18;;;;;;;;;;;;;;;;;;349772;28;1335;-62
2021/10/20 09:13:28;;;;;;;;;;;;;;;;;;349733;28;841;-65
2021/10/20 09:13:38;;;;;;;;;;;;;;;;;;351043;28;1137;-67
2021/10/20 09:13:49;;;;;;;;;;;;;;;;;;350963;28;829;-72
2021/10/20 09:13:59;;;;;;;;;;;;;;;;;;349539;28;865;-74
2021/10/20 09:14:13;;;;;;;;;;;;;;;;;;348254;28;913;-67
2021/10/20 09:14:24;;;;;;;;;;;;;;;;;;348335;28;881;-61
2021/10/20 09:14:35;;;;;;;;;;;;;;;;;;348296;28;877;-61
2021/10/20 09:14:45;;;;;;;;;;;;;;;;;;346854;28;862;-61
2021/10/20 09:14:58;;;;;;;;;;;;;;;;;;346821;28;905;-59
2021/10/20 09:15:12;;;;;;;;;;;;;;;;;;346904;28;798;-61
2021/10/20 09:15:24;;;;;;;;;;;;;;;;;;344203;28;870;-61
2021/10/20 09:15:34;;;;;;;;;;;;;;;;;;346895;28;909;-61
2021/10/20 09:15:45;;;;;;;;;;;;;;;;;;345399;28;1210;-61
2021/10/20 09:15:57;;;;;;;;;;;;;;;;;;346881;28;968;-62
2021/10/20 09:16:10;;;;;;;;;;;;;;;;;;346920;28;862;-59
2021/10/20 09:16:21;;;;;;;;;;;;;;;;;;346950;28;506;-60
2021/10/20 09:16:31;;;;;;;;;;;;;;;;;;347603;28;976;-61
2021/10/20 09:16:42;;;;;;;;;;;;;;;;;;346889;28;850;-60
2021/10/20 09:16:53;;;;;;;;;;;;;;;;;;346920;28;802;-62
2021/10/20 09:17:03;;;;;;;;;;;;;;;;;;345452;28;1205;-62
2021/10/20 09:17:14;;;;;;;;;;;;;;;;;;345637;28;925;-62
2021/10/20 09:17:24;;;;;;;;;;;;;;;;;;346825;28;1282;-61
2021/10/20 09:17:41;;;;;;;;;;;;;;;;;;345661;28;901;-61
2021/10/20 09:17:53;;;;;;;;;;;;;;;;;;346910;28;937;-62
2021/10/20 09:18:04;;;;;;;;;;;;;;;;;;346857;28;855;-61
2021/10/20 09:18:15;;;;;;;;;;;;;;;;;;346893;28;1199;-62
2021/10/20 09:18:25;;;;;;;;;;;;;;;;;;346896;28;877;-59
2021/10/20 09:18:38;;;;;;;;;;;;;;;;;;347298;28;869;-60
2021/10/20 09:18:49;;;;;;;;;;;;;;;;;;348193;28;945;-61
2021/10/20 09:19:00;;;;;;;;;;;;;;;;;;348928;28;909;-59
2021/10/20 09:19:10;;;;;;;;;;;;;;;;;;348170;28;969;-59
2021/10/20 09:19:24;;;;;;;;;;;;;;;;;;348931;28;996;-60
2021/10/20 09:19:35;;;;;;;;;;;;;;;;;;348305;28;774;-60
2021/10/20 09:19:45;;;;;;;;;;;;;;;;;;347927;28;917;-60
2021/10/20 09:19:58;;;;;;;;;;;;;;;;;;348263;28;940;-60
2021/10/20 09:20:18;;;;;;;;;;;;;;;;;;348224;28;909;-60
2021/10/20 09:20:34;;;;;;;;;;;;;;;;;;349664;28;774;-65
2021/10/20 09:20:45;;;;;;;;;;;;;;;;;;349656;28;822;-64
2021/10/20 09:20:57;;;;;;;;;;;;;;;;;;349676;28;976;-65
2021/10/20 11:14:16;;;;;;;;;;;;;;;;;;665896;27;1390647;-87
2021/10/20 11:14:27;;;;;;;;;;;;;;;;;;353915;28;923;-85
2021/10/20 11:14:37;;;;;;;;;;;;;;;;;;352452;28;995;-81
2021/10/20 11:14:48;;;;;;;;;;;;;;;;;;349599;28;1574;-83
2021/10/20 11:14:59;;;;;;;;;;;;;;;;;;348235;28;795;-85
2021/10/20 11:15:10;;;;;;;;;;;;;;;;;;351006;28;1055;-80
2021/10/20 11:15:20;;;;;;;;;;;;;;;;;;351061;28;770;-84
2021/10/20 11:15:31;;;;;;;;;;;;;;;;;;349313;28;1273;-85
2021/10/20 11:16:00;;;;;;;;;;;;;;;;;;349526;28;1013;-81
2021/10/20 11:16:20;;;;;;;;;;;;;;;;;;351055;28;909;-88
2021/10/20 11:16:31;;;;;;;;;;;;;;;;;;350110;28;1473;-82
2021/10/20 11:16:45;;;;;;;;;;;;;;;;;;350860;28;1249;-81
2021/10/20 11:17:22;;;;;;;;;;;;;;;;;;348138;28;1219;-83
2021/10/20 11:17:33;;;;;;;;;;;;;;;;;;349654;28;1036;-79
2021/10/20 11:17:43;;;;;;;;;;;;;;;;;;348243;28;917;-82
2021/10/20 11:17:55;;;;;;;;;;;;;;;;;;346805;28;1461;-80
2021/10/20 11:18:05;;;;;;;;;;;;;;;;;;346830;28;1000;-83
2021/10/20 11:18:16;;;;;;;;;;;;;;;;;;346726;28;1271;-80
2021/10/20 11:18:26;;;;;;;;;;;;;;;;;;348165;28;928;-79
2021/10/20 11:18:37;;;;;;;;;;;;;;;;;;348285;28;980;-77
2021/10/20 11:18:53;;;;;;;;;;;;;;;;;;349629;28;850;-79
2021/10/20 11:19:04;;;;;;;;;;;;;;;;;;349550;28;803;-78
2021/10/20 11:19:19;;;;;;;;;;;;;;;;;;348262;28;1032;-80
2021/10/20 11:19:29;;;;;;;;;;;;;;;;;;348258;28;921;-78
2021/10/20 11:19:56;;;;;;;;;;;;;;;;;;346886;28;920;-82
2021/10/20 11:20:07;;;;;;;;;;;;;;;;;;346484;28;1501;-84
2021/10/20 11:20:18;;;;;;;;;;;;;;;;;;347251;28;1463;-81
2021/10/20 11:20:30;;;;;;;;;;;;;;;;;;347948;28;805;-83
2021/10/20 11:20:43;;;;;;;;;;;;;;;;;;348074;28;1012;-85
2021/10/20 11:20:54;;;;;;;;;;;;;;;;;;348213;28;933;-81
2021/10/20 11:21:04;;;;;;;;;;;;;;;;;;348224;28;972;-83
2021/10/20 11:21:15;;;;;;;;;;;;;;;;;;348203;28;1589;-85
2021/10/20 11:21:25;;;;;;;;;;;;;;;;;;346871;28;1056;-83
2021/10/20 11:21:36;;;;;;;;;;;;;;;;;;348203;28;1918;-81
2021/10/20 11:21:46;;;;;;;;;;;;;;;;;;346362;28;1270;-84
2021/10/20 11:21:58;;;;;;;;;;;;;;;;;;346782;28;829;-80
2021/10/20 11:22:08;;;;;;;;;;;;;;;;;;348100;28;1448;-79
2021/10/20 11:22:19;;;;;;;;;;;;;;;;;;347927;28;976;-82
2021/10/20 11:22:29;;;;;;;;;;;;;;;;;;348249;28;1003;-80
2021/10/20 11:22:42;;;;;;;;;;;;;;;;;;348186;28;968;-82
2021/10/20 11:22:54;;;;;;;;;;;;;;;;;;348132;28;1155;-85
2021/10/20 11:23:05;;;;;;;;;;;;;;;;;;348080;28;1411;-82
2021/10/20 11:23:17;;;;;;;;;;;;;;;;;;346764;28;1276;-80
2021/10/20 11:23:28;;;;;;;;;;;;;;;;;;348327;28;774;-82
2021/10/20 11:23:38;;;;;;;;;;;;;;;;;;348251;28;796;-80
2021/10/20 11:23:49;;;;;;;;;;;;;;;;;;348262;28;805;-86
2021/10/20 11:23:59;;;;;;;;;;;;;;;;;;348183;28;967;-81
2021/10/20 11:24:09;;;;;;;;;;;;;;;;;;346775;28;1494;-79
2021/10/20 11:24:20;;;;;;;;;;;;;;;;;;349419;28;1262;-83
2021/10/20 11:24:33;;;;;;;;;;;;;;;;;;349600;28;1023;-82
2021/10/20 11:24:45;;;;;;;;;;;;;;;;;;349606;28;924;-81
2021/10/20 11:24:57;;;;;;;;;;;;;;;;;;348064;28;988;-83
2021/10/20 11:25:09;;;;;;;;;;;;;;;;;;349408;28;1237;-80
2021/10/20 11:25:20;;;;;;;;;;;;;;;;;;350829;28;1447;-85
2021/10/20 11:25:30;;;;;;;;;;;;;;;;;;350847;28;1146;-81
2021/10/20 11:25:42;;;;;;;;;;;;;;;;;;350864;28;896;-82
2021/10/20 11:25:52;;;;;;;;;;;;;;;;;;349448;28;1350;-81
2021/10/20 11:26:17;;;;;;;;;;;;;;;;;;348164;28;1019;-79
2021/10/20 11:26:29;;;;;;;;;;;;;;;;;;346803;28;794;-84
2021/10/20 11:26:45;;;;;;;;;;;;;;;;;;349333;28;1362;-84
2021/10/20 11:27:02;;;;;;;;;;;;;;;;;;349595;28;1068;-79
2021/10/20 11:27:13;;;;;;;;;;;;;;;;;;348111;28;1191;-82
2021/10/20 11:27:23;;;;;;;;;;;;;;;;;;348136;28;1234;-83
2021/10/20 11:27:34;;;;;;;;;;;;;;;;;;349496;28;1278;-85
2021/10/20 11:27:45;;;;;;;;;;;;;;;;;;349506;28;1575;-82
2021/10/20 11:27:57;;;;;;;;;;;;;;;;;;349611;28;897;-81
2021/10/20 11:28:08;;;;;;;;;;;;;;;;;;349585;28;821;-81
2021/10/20 11:28:18;;;;;;;;;;;;;;;;;;348091;28;1520;-81
2021/10/20 11:28:31;;;;;;;;;;;;;;;;;;346824;28;961;-83
2021/10/20 11:28:41;;;;;;;;;;;;;;;;;;348204;28;948;-87
2021/10/20 11:28:52;;;;;;;;;;;;;;;;;;348201;28;912;-85
2021/10/20 11:29:08;;;;;;;;;;;;;;;;;;346603;28;1483;-83
2021/10/20 11:29:19;;;;;;;;;;;;;;;;;;345532;28;853;-84
2021/10/20 11:29:29;;;;;;;;;;;;;;;;;;345404;28;712;-86
2021/10/20 11:29:40;;;;;;;;;;;;;;;;;;346606;28;1253;-82
2021/10/20 11:29:51;;;;;;;;;;;;;;;;;;346770;28;1227;-85
2021/10/20 11:30:02;;;;;;;;;;;;;;;;;;346801;28;825;-84
2021/10/20 11:30:12;;;;;;;;;;;;;;;;;;345478;28;976;-85
2021/10/20 11:30:24;;;;;;;;;;;;;;;;;;346854;28;834;-83
2021/10/20 11:30:35;;;;;;;;;;;;;;;;;;346635;28;1433;-82
2021/10/20 11:30:46;;;;;;;;;;;;;;;;;;346715;28;1185;-83
2021/10/20 11:30:56;;;;;;;;;;;;;;;;;;346810;28;803;-83
2021/10/20 11:31:07;;;;;;;;;;;;;;;;;;346703;28;1585;-83
2021/10/20 11:31:18;;;;;;;;;;;;;;;;;;346809;28;886;-84
2021/10/20 11:31:28;;;;;;;;;;;;;;;;;;346831;28;815;-85
2021/10/20 11:31:39;;;;;;;;;;;;;;;;;;345289;28;1479;-84
2021/10/20 11:31:57;;;;;;;;;;;;;;;;;;346678;28;1460;-85
2021/10/20 11:32:08;;;;;;;;;;;;;;;;;;346795;28;901;-85
2021/10/20 11:32:19;;;;;;;;;;;;;;;;;;348221;28;980;-83
2021/10/20 11:32:30;;;;;;;;;;;;;;;;;;349028;28;1393;-83
2021/10/20 11:32:41;;;;;;;;;;;;;;;;;;349638;28;810;-83
2021/10/20 11:32:51;;;;;;;;;;;;;;;;;;349627;28;940;-81
2021/10/20 11:33:05;;;;;;;;;;;;;;;;;;348287;28;778;-86
2021/10/20 11:33:26;;;;;;;;;;;;;;;;;;348212;28;971;-85
2021/10/20 11:33:36;;;;;;;;;;;;;;;;;;348226;28;964;-84
2021/10/20 11:33:47;;;;;;;;;;;;;;;;;;349597;28;1047;-81
2021/10/20 11:34:13;;;;;;;;;;;;;;;;;;349381;28;1969;-86
2021/10/20 11:34:24;;;;;;;;;;;;;;;;;;348080;28;1625;-85
2021/10/20 11:34:38;;;;;;;;;;;;;;;;;;346773;28;857;-85
2021/10/20 11:34:48;;;;;;;;;;;;;;;;;;345448;28;743;-86
2021/10/20 11:34:59;;;;;;;;;;;;;;;;;;345478;28;940;-86
2021/10/20 11:35:13;;;;;;;;;;;;;;;;;;345449;28;901;-87
2021/10/20 11:35:24;;;;;;;;;;;;;;;;;;345462;28;807;-85
2021/10/20 11:35:35;;;;;;;;;;;;;;;;;;346719;28;1359;-85
2021/10/20 11:35:46;;;;;;;;;;;;;;;;;;346567;28;1145;-85
2021/10/20 11:36:17;;;;;;;;;;;;;;;;;;341428;29;1147;-87
2021/10/20 11:36:27;;;;;;;;;;;;;;;;;;342583;28;1588;-85
2021/10/20 11:37:10;;;;;;;;;;;;;;;;;;346739;28;1587;-87
2021/10/20 11:37:23;;;;;;;;;;;;;;;;;;348044;28;1718;-86
2021/10/20 11:37:35;;;;;;;;;;;;;;;;;;346757;28;1378;-86
2021/10/20 11:37:56;;;;;;;;;;;;;;;;;;348197;28;1000;-86
2021/10/20 11:38:10;;;;;;;;;;;;;;;;;;346839;28;985;-86
2021/10/20 11:38:21;;;;;;;;;;;;;;;;;;348093;28;989;-86
2021/10/20 11:38:34;;;;;;;;;;;;;;;;;;348088;28;980;-87
2021/10/20 11:38:46;;;;;;;;;;;;;;;;;;346718;28;1483;-85
2021/10/20 11:39:03;;;;;;;;;;;;;;;;;;348111;28;1315;-85
2021/10/20 11:39:14;;;;;;;;;;;;;;;;;;346708;28;1275;-86
2021/10/20 11:39:29;;;;;;;;;;;;;;;;;;348283;28;882;-86
2021/10/20 11:39:40;;;;;;;;;;;;;;;;;;346720;28;1200;-86
2021/10/20 11:39:57;;;;;;;;;;;;;;;;;;346751;28;1282;-83
2021/10/20 11:40:11;;;;;;;;;;;;;;;;;;345484;28;1013;-88
2021/10/20 11:40:23;;;;;;;;;;;;;;;;;;346950;28;818;-87
2021/10/20 11:40:39;;;;;;;;;;;;;;;;;;346654;28;806;-89
2021/10/20 11:40:52;;;;;;;;;;;;;;;;;;349363;28;1368;-85
2021/10/20 11:41:03;;;;;;;;;;;;;;;;;;348180;28;1333;-87
2021/10/20 11:41:20;;;;;;;;;;;;;;;;;;351024;28;1434;-87
2021/10/20 11:41:31;;;;;;;;;;;;;;;;;;349592;28;783;-86
2021/10/20 11:42:04;;;;;;;;;;;;;;;;;;348126;28;1182;-79
2021/10/20 11:42:15;;;;;;;;;;;;;;;;;;346557;28;1338;-82
2021/10/20 11:42:26;;;;;;;;;;;;;;;;;;345503;28;826;-88
2021/10/20 11:42:42;;;;;;;;;;;;;;;;;;348329;28;771;-87
2021/10/20 11:42:53;;;;;;;;;;;;;;;;;;348173;28;940;-86
2021/10/20 11:43:13;;;;;;;;;;;;;;;;;;346885;28;869;-87
2021/10/20 11:43:25;;;;;;;;;;;;;;;;;;349547;28;861;-88
2021/10/20 11:43:45;;;;;;;;;;;;;;;;;;349683;28;766;-85
2021/10/20 11:43:56;;;;;;;;;;;;;;;;;;346946;28;842;-87
2021/10/20 11:44:07;;;;;;;;;;;;;;;;;;346631;28;1382;-86
2021/10/20 11:44:19;;;;;;;;;;;;;;;;;;345389;28;978;-88
2021/10/20 11:44:31;;;;;;;;;;;;;;;;;;346809;28;838;-89
2021/10/20 11:44:42;;;;;;;;;;;;;;;;;;348269;28;802;-87
2021/10/20 11:44:53;;;;;;;;;;;;;;;;;;348213;28;849;-86
2021/10/20 11:45:05;;;;;;;;;;;;;;;;;;347920;28;1387;-86
2021/10/20 11:45:18;;;;;;;;;;;;;;;;;;348234;28;810;-89
2021/10/20 11:45:29;;;;;;;;;;;;;;;;;;346818;28;830;-85
2021/10/20 11:45:40;;;;;;;;;;;;;;;;;;348116;28;1308;-87
2021/10/20 11:46:00;;;;;;;;;;;;;;;;;;348020;28;1283;-88
2021/10/20 11:46:16;;;;;;;;;;;;;;;;;;348213;28;1427;-87
2021/10/20 11:46:30;;;;;;;;;;;;;;;;;;348107;28;1420;-88
2021/10/20 11:46:44;;;;;;;;;;;;;;;;;;346718;28;857;-89
2021/10/20 11:46:59;;;;;;;;;;;;;;;;;;348036;28;1366;-85
2021/10/20 11:47:10;;;;;;;;;;;;;;;;;;349403;28;1473;-87
2021/10/20 11:47:21;;;;;;;;;;;;;;;;;;348119;28;897;-88
2021/10/20 11:47:32;;;;;;;;;;;;;;;;;;348081;28;1183;-88
2021/10/20 11:47:43;;;;;;;;;;;;;;;;;;348173;28;959;-88
2021/10/20 11:47:57;;;;;;;;;;;;;;;;;;348297;28;849;-87
2021/10/20 11:48:08;;;;;;;;;;;;;;;;;;348076;28;1595;-81
2021/10/20 11:48:28;;;;;;;;;;;;;;;;;;349656;28;809;-85
2021/10/20 11:48:44;;;;;;;;;;;;;;;;;;348311;28;813;-88
2021/10/20 11:48:57;;;;;;;;;;;;;;;;;;351101;28;813;-86
2021/10/20 11:49:07;;;;;;;;;;;;;;;;;;348761;28;1428;-85
2021/10/20 11:49:18;;;;;;;;;;;;;;;;;;350357;28;1605;-84
2021/10/20 11:49:28;;;;;;;;;;;;;;;;;;351293;28;961;-86
2021/10/20 11:49:43;;;;;;;;;;;;;;;;;;347212;28;1842;-86
2021/10/20 11:49:53;;;;;;;;;;;;;;;;;;350693;28;1572;-87
2021/10/20 11:50:04;;;;;;;;;;;;;;;;;;347770;28;1326;-85
2021/10/20 11:50:23;;;;;;;;;;;;;;;;;;349085;27;1631;-84
2021/10/20 11:50:33;;;;;;;;;;;;;;;;;;348848;28;1570;-83
2021/10/20 11:50:47;;;;;;;;;;;;;;;;;;350909;28;984;-85
2021/10/20 11:50:58;;;;;;;;;;;;;;;;;;351052;28;1055;-87
2021/10/20 11:51:08;;;;;;;;;;;;;;;;;;348295;28;869;-81
2021/10/20 11:51:21;;;;;;;;;;;;;;;;;;348241;28;1403;-84
2021/10/20 11:51:32;;;;;;;;;;;;;;;;;;345541;28;988;-84
2021/10/20 11:51:42;;;;;;;;;;;;;;;;;;348069;28;1167;-85
2021/10/20 11:51:53;;;;;;;;;;;;;;;;;;346856;28;925;-85
2021/10/20 11:52:04;;;;;;;;;;;;;;;;;;348308;28;841;-88
2021/10/20 11:52:15;;;;;;;;;;;;;;;;;;346980;28;1582;-88
2021/10/20 11:52:25;;;;;;;;;;;;;;;;;;346864;28;1274;-89
2021/10/20 11:52:36;;;;;;;;;;;;;;;;;;345558;28;1316;-88
2021/10/20 11:52:56;;;;;;;;;;;;;;;;;;347016;28;861;-87
2021/10/20 11:53:07;;;;;;;;;;;;;;;;;;345477;28;1286;-85
2021/10/20 11:53:18;;;;;;;;;;;;;;;;;;345460;28;1168;-86
2021/10/20 11:53:47;;;;;;;;;;;;;;;;;;347028;28;633;-88
2021/10/20 11:54:03;;;;;;;;;;;;;;;;;;346774;28;1163;-86
2021/10/20 11:54:13;;;;;;;;;;;;;;;;;;346928;28;922;-87
2021/10/20 11:54:28;;;;;;;;;;;;;;;;;;348233;28;916;-87
2021/10/20 11:54:38;;;;;;;;;;;;;;;;;;345593;28;984;-87
2021/10/20 11:54:49;;;;;;;;;;;;;;;;;;348289;28;1056;-87
2021/10/20 11:54:59;;;;;;;;;;;;;;;;;;345676;28;740;-85
2021/10/20 11:55:10;;;;;;;;;;;;;;;;;;346972;28;841;-85
2021/10/20 11:55:23;;;;;;;;;;;;;;;;;;348254;28;924;-88
2021/10/20 11:55:39;;;;;;;;;;;;;;;;;;349701;28;1015;-87
2021/10/20 11:55:52;;;;;;;;;;;;;;;;;;346842;28;1267;-86
2021/10/20 11:56:03;;;;;;;;;;;;;;;;;;345333;28;1165;-87
2021/10/20 11:56:13;;;;;;;;;;;;;;;;;;345327;28;1151;-84
2021/10/20 11:56:23;;;;;;;;;;;;;;;;;;348274;28;1271;-87
2021/10/20 11:56:34;;;;;;;;;;;;;;;;;;347048;28;1459;-85
2021/10/20 11:56:51;;;;;;;;;;;;;;;;;;349739;28;837;-86
2021/10/20 11:57:04;;;;;;;;;;;;;;;;;;349687;28;924;-86
2021/10/20 11:57:16;;;;;;;;;;;;;;;;;;349625;28;1187;-88
2021/10/20 11:57:26;;;;;;;;;;;;;;;;;;346990;28;976;-87
2021/10/20 11:57:37;;;;;;;;;;;;;;;;;;345701;28;985;-87
2021/10/20 11:57:47;;;;;;;;;;;;;;;;;;346623;28;1284;-87
2021/10/20 11:57:58;;;;;;;;;;;;;;;;;;346808;28;1572;-84
2021/10/20 11:58:15;;;;;;;;;;;;;;;;;;346930;28;972;-86
2021/10/20 11:58:26;;;;;;;;;;;;;;;;;;346807;28;973;-86
2021/10/20 11:58:37;;;;;;;;;;;;;;;;;;345477;28;1023;-87
2021/10/20 11:58:48;;;;;;;;;;;;;;;;;;342770;28;1262;-85
2021/10/20 11:58:59;;;;;;;;;;;;;;;;;;345364;28;1418;-85
2021/10/20 11:59:18;;;;;;;;;;;;;;;;;;346874;28;960;-86
2021/10/20 11:59:29;;;;;;;;;;;;;;;;;;344153;28;811;-87
2021/10/20 11:59:39;;;;;;;;;;;;;;;;;;346906;28;1477;-86
2021/10/20 11:59:50;;;;;;;;;;;;;;;;;;349452;28;1589;-86
2021/10/20 12:00:00;;;;;;;;;;;;;;;;;;348377;28;941;-85
2021/10/20 12:00:11;;;;;;;;;;;;;;;;;;348215;28;1737;-86
2021/10/20 12:00:24;;;;;;;;;;;;;;;;;;345626;28;822;-88
2021/10/20 12:00:35;;;;;;;;;;;;;;;;;;345324;28;1431;-85
2021/10/20 12:00:52;;;;;;;;;;;;;;;;;;345378;28;1132;-87
2021/10/20 12:01:05;;;;;;;;;;;;;;;;;;346807;28;798;-86
2021/10/20 12:01:15;;;;;;;;;;;;;;;;;;346735;28;1468;-86
2021/10/20 12:01:30;;;;;;;;;;;;;;;;;;346983;28;929;-88
2021/10/20 12:01:40;;;;;;;;;;;;;;;;;;345573;28;843;-85
2021/10/20 12:01:51;;;;;;;;;;;;;;;;;;349618;28;1158;-88
2021/10/20 12:02:01;;;;;;;;;;;;;;;;;;349677;28;904;-86
2021/10/20 12:02:13;;;;;;;;;;;;;;;;;;348264;28;823;-87
2021/10/20 12:02:29;;;;;;;;;;;;;;;;;;349614;28;1179;-84
2021/10/20 12:02:39;;;;;;;;;;;;;;;;;;344002;28;1282;-88
2021/10/20 12:02:50;;;;;;;;;;;;;;;;;;346885;28;905;-84
2021/10/20 12:03:00;;;;;;;;;;;;;;;;;;348288;28;921;-84
2021/10/20 12:03:10;;;;;;;;;;;;;;;;;;348284;28;854;-86
2021/10/20 12:03:27;;;;;;;;;;;;;;;;;;348199;28;1236;-86
2021/10/20 12:03:41;;;;;;;;;;;;;;;;;;345543;28;849;-88
2021/10/20 12:03:52;;;;;;;;;;;;;;;;;;345616;28;945;-86
2021/10/20 12:04:06;;;;;;;;;;;;;;;;;;345597;28;1007;-84
2021/10/20 12:04:17;;;;;;;;;;;;;;;;;;346773;28;929;-88
2021/10/20 12:04:27;;;;;;;;;;;;;;;;;;345621;28;865;-86
2021/10/20 12:04:39;;;;;;;;;;;;;;;;;;346885;28;1246;-82
2021/10/20 12:04:49;;;;;;;;;;;;;;;;;;344366;28;929;-81
2021/10/20 12:04:59;;;;;;;;;;;;;;;;;;345697;28;807;-85
2021/10/20 12:05:10;;;;;;;;;;;;;;;;;;345474;28;941;-86
2021/10/20 12:05:20;;;;;;;;;;;;;;;;;;345495;28;961;-85
2021/10/20 12:05:31;;;;;;;;;;;;;;;;;;346989;28;862;-87
2021/10/20 12:05:42;;;;;;;;;;;;;;;;;;346894;28;1509;-86
2021/10/20 12:05:52;;;;;;;;;;;;;;;;;;345518;28;1275;-86
2021/10/20 12:06:03;;;;;;;;;;;;;;;;;;345405;28;1016;-86
2021/10/20 12:06:14;;;;;;;;;;;;;;;;;;344275;28;992;-84
2021/10/20 12:06:25;;;;;;;;;;;;;;;;;;345431;28;1176;-81
2021/10/20 12:06:35;;;;;;;;;;;;;;;;;;346909;28;849;-84
2021/10/20 12:06:49;;;;;;;;;;;;;;;;;;346910;28;865;-85
2021/10/20 12:07:01;;;;;;;;;;;;;;;;;;346815;28;1210;-85
2021/10/20 12:07:16;;;;;;;;;;;;;;;;;;344219;28;961;-85
2021/10/20 12:07:30;;;;;;;;;;;;;;;;;;344200;28;795;-86
2021/10/20 12:07:46;;;;;;;;;;;;;;;;;;345627;28;1021;-88
2021/10/20 12:07:56;;;;;;;;;;;;;;;;;;348321;28;770;-87
2021/10/20 12:08:07;;;;;;;;;;;;;;;;;;349639;28;905;-87
2021/10/20 12:08:17;;;;;;;;;;;;;;;;;;346840;28;905;-90
2021/10/20 12:08:28;;;;;;;;;;;;;;;;;;345569;28;1487;-86
2021/10/20 12:08:45;;;;;;;;;;;;;;;;;;345510;28;1021;-86
2021/10/20 12:08:55;;;;;;;;;;;;;;;;;;346900;28;1599;-84
2021/10/20 12:09:06;;;;;;;;;;;;;;;;;;347007;28;939;-85
2021/10/20 12:09:16;;;;;;;;;;;;;;;;;;348234;28;1000;-86
2021/10/20 12:09:28;;;;;;;;;;;;;;;;;;348289;28;790;-87
2021/10/20 12:09:41;;;;;;;;;;;;;;;;;;346800;28;985;-85
2021/10/20 12:09:51;;;;;;;;;;;;;;;;;;348091;28;1582;-87
2021/10/20 12:10:03;;;;;;;;;;;;;;;;;;345496;28;1463;-88
2021/10/20 12:10:13;;;;;;;;;;;;;;;;;;345512;28;1907;-85
2021/10/20 12:10:24;;;;;;;;;;;;;;;;;;348338;28;940;-84
2021/10/20 12:10:34;;;;;;;;;;;;;;;;;;349542;28;1518;-89
2021/10/20 12:10:45;;;;;;;;;;;;;;;;;;348229;28;841;-82
2021/10/20 12:10:55;;;;;;;;;;;;;;;;;;345470;28;1407;-83
2021/10/20 12:11:06;;;;;;;;;;;;;;;;;;344066;28;933;-83
2021/10/20 12:11:19;;;;;;;;;;;;;;;;;;348142;28;1210;-88
2021/10/20 12:11:30;;;;;;;;;;;;;;;;;;348171;28;1300;-86
2021/10/20 12:11:43;;;;;;;;;;;;;;;;;;345563;28;972;-87
2021/10/20 12:11:53;;;;;;;;;;;;;;;;;;345548;28;901;-82
2021/10/20 12:12:05;;;;;;;;;;;;;;;;;;348334;28;885;-87
2021/10/20 12:12:16;;;;;;;;;;;;;;;;;;348327;28;924;-87
2021/10/20 12:12:27;;;;;;;;;;;;;;;;;;345650;28;858;-86
2021/10/20 12:12:37;;;;;;;;;;;;;;;;;;346952;28;818;-88
2021/10/20 12:12:48;;;;;;;;;;;;;;;;;;348330;28;1000;-86
2021/10/20 12:12:58;;;;;;;;;;;;;;;;;;348226;28;838;-86
2021/10/20 12:13:09;;;;;;;;;;;;;;;;;;346885;28;1379;-87
2021/10/20 12:13:19;;;;;;;;;;;;;;;;;;346911;28;817;-85
2021/10/20 12:13:33;;;;;;;;;;;;;;;;;;346899;28;893;-88
2021/10/20 12:13:44;;;;;;;;;;;;;;;;;;348160;28;1175;-86
2021/10/20 12:14:03;;;;;;;;;;;;;;;;;;348349;28;802;-85
2021/10/20 12:14:14;;;;;;;;;;;;;;;;;;348218;28;976;-88
2021/10/20 12:14:31;;;;;;;;;;;;;;;;;;348291;28;976;-84
2021/10/20 12:14:42;;;;;;;;;;;;;;;;;;346934;28;810;-85
2021/10/20 12:14:57;;;;;;;;;;;;;;;;;;345582;28;893;-87
2021/10/20 12:15:08;;;;;;;;;;;;;;;;;;346853;28;1430;-89
2021/10/20 12:15:19;;;;;;;;;;;;;;;;;;346817;28;1593;-85
2021/10/20 12:15:29;;;;;;;;;;;;;;;;;;345424;28;1121;-85
2021/10/20 12:15:40;;;;;;;;;;;;;;;;;;345532;28;845;-82
2021/10/20 12:15:51;;;;;;;;;;;;;;;;;;344249;28;1107;-85
2021/10/20 12:16:02;;;;;;;;;;;;;;;;;;346939;28;787;-85
2021/10/20 12:16:15;;;;;;;;;;;;;;;;;;346756;28;885;-87
2021/10/20 12:16:26;;;;;;;;;;;;;;;;;;349504;28;1075;-86
2021/10/20 12:16:37;;;;;;;;;;;;;;;;;;348185;28;1202;-88
2021/10/20 12:16:48;;;;;;;;;;;;;;;;;;348171;28;1164;-88
2021/10/20 12:17:01;;;;;;;;;;;;;;;;;;348217;28;894;-89
2021/10/20 12:17:11;;;;;;;;;;;;;;;;;;345545;28;799;-87
2021/10/20 12:17:22;;;;;;;;;;;;;;;;;;347102;28;798;-84
2021/10/20 12:17:32;;;;;;;;;;;;;;;;;;348133;28;1502;-85
2021/10/20 12:17:43;;;;;;;;;;;;;;;;;;348291;28;822;-87
2021/10/20 12:17:54;;;;;;;;;;;;;;;;;;345483;28;1215;-90
2021/10/20 12:18:04;;;;;;;;;;;;;;;;;;345643;28;1506;-86
2021/10/20 12:18:16;;;;;;;;;;;;;;;;;;346757;28;1228;-85
2021/10/20 12:18:27;;;;;;;;;;;;;;;;;;346862;28;942;-88
2021/10/20 12:18:37;;;;;;;;;;;;;;;;;;349684;28;826;-88
2021/10/20 12:18:48;;;;;;;;;;;;;;;;;;346932;28;830;-87
2021/10/20 12:18:58;;;;;;;;;;;;;;;;;;348168;28;1349;-85
2021/10/20 12:19:10;;;;;;;;;;;;;;;;;;349608;28;1174;-88
2021/10/20 12:19:21;;;;;;;;;;;;;;;;;;348240;28;857;-88
2021/10/20 12:19:32;;;;;;;;;;;;;;;;;;349599;28;957;-88
2021/10/20 12:19:44;;;;;;;;;;;;;;;;;;350967;28;1074;-82
2021/10/20 12:19:57;;;;;;;;;;;;;;;;;;349580;28;961;-84
2021/10/20 12:20:08;;;;;;;;;;;;;;;;;;344089;28;1166;-87
2021/10/20 12:20:18;;;;;;;;;;;;;;;;;;345530;28;973;-87
2021/10/20 12:20:49;;;;;;;;;;;;;;;;;;344090;28;988;-88
2021/10/20 12:21:00;;;;;;;;;;;;;;;;;;342838;28;890;-85
2021/10/20 12:21:11;;;;;;;;;;;;;;;;;;345493;28;1477;-85
2021/10/20 12:21:22;;;;;;;;;;;;;;;;;;346594;28;1156;-85
2021/10/20 12:21:32;;;;;;;;;;;;;;;;;;345535;28;885;-86
2021/10/20 12:21:43;;;;;;;;;;;;;;;;;;345437;28;952;-84
2021/10/20 12:21:53;;;;;;;;;;;;;;;;;;346899;28;899;-87
2021/10/20 12:22:05;;;;;;;;;;;;;;;;;;346952;28;858;-86
2021/10/20 12:22:16;;;;;;;;;;;;;;;;;;346724;28;1263;-86
2021/10/20 12:22:27;;;;;;;;;;;;;;;;;;346933;28;862;-81
2021/10/20 12:22:40;;;;;;;;;;;;;;;;;;346951;28;791;-87
2021/10/20 12:22:51;;;;;;;;;;;;;;;;;;345384;28;1216;-87
2021/10/20 12:23:01;;;;;;;;;;;;;;;;;;348151;28;1223;-86
2021/10/20 12:23:12;;;;;;;;;;;;;;;;;;348304;28;929;-88
2021/10/20 12:23:22;;;;;;;;;;;;;;;;;;348332;28;877;-89
2021/10/20 12:23:33;;;;;;;;;;;;;;;;;;346776;28;1286;-88
2021/10/20 12:23:44;;;;;;;;;;;;;;;;;;347929;28;1230;-89
2021/10/20 12:23:58;;;;;;;;;;;;;;;;;;346755;28;1454;-87
2021/10/20 12:24:09;;;;;;;;;;;;;;;;;;345439;28;1286;-83
2021/10/20 12:24:20;;;;;;;;;;;;;;;;;;346733;28;1303;-88
2021/10/20 12:24:38;;;;;;;;;;;;;;;;;;348021;28;1583;-87
2021/10/20 12:24:49;;;;;;;;;;;;;;;;;;346865;28;929;-87
2021/10/20 12:24:59;;;;;;;;;;;;;;;;;;346743;28;1156;-86
2021/10/20 12:25:10;;;;;;;;;;;;;;;;;;348162;28;1593;-87
2021/10/20 12:25:20;;;;;;;;;;;;;;;;;;346908;28;771;-87
2021/10/20 12:25:32;;;;;;;;;;;;;;;;;;347907;28;1243;-87
2021/10/20 12:25:42;;;;;;;;;;;;;;;;;;345465;28;1224;-86
2021/10/20 12:25:54;;;;;;;;;;;;;;;;;;346735;28;1443;-85
2021/10/20 12:26:04;;;;;;;;;;;;;;;;;;349565;28;1182;-88
2021/10/20 12:26:15;;;;;;;;;;;;;;;;;;348165;28;1330;-85
2021/10/20 12:26:28;;;;;;;;;;;;;;;;;;349513;28;945;-88
2021/10/20 12:26:57;;;;;;;;;;;;;;;;;;346911;28;645;-82
2021/10/20 12:27:09;;;;;;;;;;;;;;;;;;346882;28;984;-86
2021/10/20 12:27:20;;;;;;;;;;;;;;;;;;346639;28;1580;-84
2021/10/20 12:27:31;;;;;;;;;;;;;;;;;;344080;28;1401;-87
2021/10/20 12:27:42;;;;;;;;;;;;;;;;;;345549;28;861;-86
2021/10/20 12:27:52;;;;;;;;;;;;;;;;;;349666;28;821;-81
2021/10/20 12:28:03;;;;;;;;;;;;;;;;;;349662;28;798;-85
2021/10/20 12:28:13;;;;;;;;;;;;;;;;;;346875;28;1450;-81
2021/10/20 12:28:24;;;;;;;;;;;;;;;;;;346906;28;850;-83
2021/10/20 12:28:35;;;;;;;;;;;;;;;;;;344209;28;819;-83
2021/10/20 12:28:45;;;;;;;;;;;;;;;;;;346910;28;798;-83
2021/10/20 12:28:57;;;;;;;;;;;;;;;;;;346901;28;790;-82
2021/10/20 12:29:08;;;;;;;;;;;;;;;;;;346809;28;1589;-86
2021/10/20 12:29:18;;;;;;;;;;;;;;;;;;348285;28;794;-84
2021/10/20 12:29:28;;;;;;;;;;;;;;;;;;348158;28;1292;-82
2021/10/20 12:29:40;;;;;;;;;;;;;;;;;;347283;28;1362;-84
2021/10/20 12:29:51;;;;;;;;;;;;;;;;;;344152;28;921;-81
2021/10/20 12:30:04;;;;;;;;;;;;;;;;;;346947;28;909;-86
2021/10/20 12:30:14;;;;;;;;;;;;;;;;;;346802;28;1910;-87
2021/10/20 12:30:24;;;;;;;;;;;;;;;;;;348213;28;940;-85
2021/10/20 12:30:35;;;;;;;;;;;;;;;;;;343031;28;1269;-89
2021/10/20 12:30:45;;;;;;;;;;;;;;;;;;344043;28;1372;-86
2021/10/20 12:30:56;;;;;;;;;;;;;;;;;;348051;28;1481;-83
2021/10/20 12:31:09;;;;;;;;;;;;;;;;;;348016;28;1229;-87
2021/10/20 12:31:19;;;;;;;;;;;;;;;;;;342747;28;1257;-83
2021/10/20 12:31:30;;;;;;;;;;;;;;;;;;348061;28;1269;-81
2021/10/20 12:31:40;;;;;;;;;;;;;;;;;;348316;28;897;-83
2021/10/20 12:31:51;;;;;;;;;;;;;;;;;;349319;28;1465;-83
2021/10/20 12:32:01;;;;;;;;;;;;;;;;;;346830;28;1184;-85
2021/10/20 12:32:19;;;;;;;;;;;;;;;;;;348161;28;1144;-84
2021/10/20 12:32:31;;;;;;;;;;;;;;;;;;348251;28;866;-90
2021/10/20 12:32:42;;;;;;;;;;;;;;;;;;348156;28;1024;-83
2021/10/20 12:32:52;;;;;;;;;;;;;;;;;;348133;28;1166;-86
2021/10/20 12:33:06;;;;;;;;;;;;;;;;;;346912;28;893;-86
2021/10/20 12:33:19;;;;;;;;;;;;;;;;;;349633;28;790;-87
2021/10/20 12:33:58;;;;;;;;;;;;;;;;;;348088;28;1368;-85
2021/10/20 12:34:09;;;;;;;;;;;;;;;;;;342852;28;1017;-80
2021/10/20 12:34:19;;;;;;;;;;;;;;;;;;342757;28;929;-85
2021/10/20 12:34:32;;;;;;;;;;;;;;;;;;345530;28;1041;-87